Time;durP1;ratioP1;P1;durP2;ratioP2;P2;SDS_P1;SDS_P2;PMS_P1;PMS_P2;Temp;Humidity;BMP_temperature;BMP_pressure;BME280_temperature;BME280_humidity;BME280_pressure;Samples;Min_cycle;Max_cycle;Signal;HPM_P1;HPM_P2
2022/09/03 00:01:58;;;;;;;4.05;0.98;;;17.40;64.30;;;;;;5053567;28;20049;-41
2022/09/03 00:04:27;;;;;;;1.98;1.08;;;17.40;64.30;;;;;;5051337;28;20489;-47
2022/09/03 00:06:58;;;;;;;3.38;1.02;;;17.40;64.50;;;;;;5051361;28;20045;-43
2022/09/03 00:09:27;;;;;;;1.95;1.00;;;17.40;64.50;;;;;;5034793;28;20060;-45
2022/09/03 00:11:55;;;;;;;3.20;1.10;;;17.40;64.50;;;;;;5035053;28;20133;-43
2022/09/03 00:14:25;;;;;;;1.77;0.80;;;17.30;64.60;;;;;;5053096;28;20124;-48
2022/09/03 00:16:54;;;;;;;2.90;1.05;;;17.30;64.70;;;;;;5051991;28;20072;-46
2022/09/03 00:19:23;;;;;;;3.22;1.00;;;17.30;64.70;;;;;;5034414;28;20425;-47
2022/09/03 00:21:52;;;;;;;2.83;0.98;;;17.20;64.80;;;;;;5034457;28;20045;-45
2022/09/03 00:24:19;;;;;;;7.63;0.98;;;17.20;64.90;;;;;;5052167;28;20053;-44
2022/09/03 00:26:50;;;;;;;5.93;1.00;;;17.20;65.00;;;;;;5052087;28;20539;-41
2022/09/03 00:29:18;;;;;;;4.57;1.13;;;17.10;65.10;;;;;;5025122;28;20057;-44
2022/09/03 00:31:50;;;;;;;4.43;1.10;;;17.10;65.90;;;;;;5052970;28;20048;-43
2022/09/03 00:34:19;;;;;;;5.18;0.80;;;17.00;65.20;;;;;;5032954;28;20495;-48
2022/09/03 00:36:46;;;;;;;4.60;0.75;;;16.90;65.20;;;;;;5048002;28;20048;-46
2022/09/03 00:39:14;;;;;;;3.20;1.10;;;16.90;65.40;;;;;;5050048;28;20053;-42
2022/09/03 00:41:48;;;;;;;7.13;1.00;;;16.90;65.50;;;;;;5046177;28;20464;-44
2022/09/03 00:44:25;;;;;;;5.13;1.20;;;16.90;65.60;;;;;;5040928;28;20060;-47
2022/09/03 00:46:57;;;;;;;5.00;1.00;;;16.80;66.40;;;;;;5053175;28;20041;-45
2022/09/03 00:49:39;;;;;;;4.55;0.90;;;16.80;65.70;;;;;;5047380;28;20145;-45
2022/09/03 00:52:11;;;;;;;3.00;1.05;;;16.80;65.70;;;;;;5052103;28;20045;-44
2022/09/03 00:54:41;;;;;;;4.32;1.00;;;16.70;65.90;;;;;;5021037;28;20091;-43
2022/09/03 00:57:23;;;;;;;6.82;1.08;;;16.70;66.00;;;;;;5039263;28;20032;-48
2022/09/03 00:59:56;;;;;;;6.50;0.80;;;16.60;66.20;;;;;;5051182;28;20045;-44
2022/09/03 01:02:28;;;;;;;5.05;1.20;;;16.60;66.10;;;;;;5036875;28;20501;-48
2022/09/03 01:04:58;;;;;;;2.50;0.90;;;16.60;66.20;;;;;;5018877;28;20052;-45
2022/09/03 01:07:31;;;;;;;4.55;0.95;;;16.50;66.20;;;;;;5052466;28;20135;-45
2022/09/03 01:10:01;;;;;;;2.58;0.68;;;16.50;66.20;;;;;;5051903;28;20389;-45
2022/09/03 01:12:33;;;;;;;7.57;0.88;;;16.60;66.30;;;;;;5044889;28;20122;-45
2022/09/03 01:15:04;;;;;;;5.80;1.55;;;16.50;66.40;;;;;;5052636;28;20451;-46
2022/09/03 01:17:39;;;;;;;4.72;0.98;;;16.50;66.50;;;;;;5052422;28;20068;-46
2022/09/03 01:20:19;;;;;;;2.38;0.93;;;16.50;66.60;;;;;;5051737;28;20441;-43
2022/09/03 01:23:21;;;;;;;1.67;0.90;;;16.40;66.60;;;;;;5051532;28;20049;-44
2022/09/03 01:25:52;;;;;;;4.10;0.88;;;16.40;66.50;;;;;;5048066;28;20061;-46
2022/09/03 01:28:37;;;;;;;3.00;0.90;;;16.40;66.70;;;;;;5015226;28;20053;-44
2022/09/03 01:31:10;;;;;;;1.90;0.80;;;16.30;66.60;;;;;;5047797;28;20392;-45
2022/09/03 01:33:39;;;;;;;5.38;0.90;;;16.30;66.80;;;;;;5016582;28;20045;-43
2022/09/03 01:36:09;;;;;;;0.88;0.60;;;16.30;67.00;;;;;;5024470;28;20049;-46
2022/09/03 01:38:39;;;;;;;4.45;1.05;;;16.20;66.90;;;;;;5028663;28;20053;-49
2022/09/03 01:43:56;;;;;;;5.32;0.90;;;16.20;67.10;;;;;;5043637;28;20052;-41
2022/09/03 01:46:24;;;;;;;2.78;1.02;;;16.20;67.30;;;;;;5033202;28;20171;-43
2022/09/03 01:48:53;;;;;;;5.20;0.80;;;16.20;67.40;;;;;;5048881;28;20045;-45
2022/09/03 01:51:21;;;;;;;2.90;0.80;;;16.10;67.30;;;;;;5049128;28;20052;-43
2022/09/03 01:54:33;;;;;;;2.58;0.60;;;16.10;67.40;;;;;;5047104;28;20549;-43
2022/09/03 01:57:15;;;;;;;;;;;16.20;67.30;;;;;;5010221;28;20046;-48
2022/09/03 01:59:45;;;;;;;2.23;0.90;;;16.10;67.30;;;;;;5028950;28;20421;-43
2022/09/03 02:02:20;;;;;;;2.20;0.93;;;16.10;67.70;;;;;;5049778;28;20299;-43
2022/09/03 02:04:56;;;;;;;3.38;0.80;;;16.10;67.70;;;;;;5033485;28;20063;-43
2022/09/03 02:07:22;;;;;;;7.35;0.85;;;16.10;67.80;;;;;;5026768;28;20046;-42
2022/09/03 02:09:49;;;;;;;2.65;0.73;;;16.10;67.90;;;;;;5032089;28;20480;-44
2022/09/03 02:12:17;;;;;;;2.65;0.68;;;16.10;67.90;;;;;;5045869;28;20131;-43
2022/09/03 02:14:45;;;;;;;4.82;0.77;;;16.10;67.90;;;;;;5054783;28;20440;-45
2022/09/03 02:17:12;;;;;;;1.25;0.80;;;16.10;67.90;;;;;;5054409;28;20080;-44
2022/09/03 02:19:39;;;;;;;3.97;0.93;;;16.10;67.80;;;;;;5053333;28;20144;-42
2022/09/03 02:22:06;;;;;;;5.97;1.02;;;16.10;68.10;;;;;;5047877;28;20144;-48
2022/09/03 02:24:32;;;;;;;3.03;0.70;;;16.10;68.10;;;;;;5052192;28;20076;-42
2022/09/03 02:26:59;;;;;;;2.65;0.90;;;16.10;68.20;;;;;;5036992;28;20056;-46
2022/09/03 02:29:26;;;;;;;3.25;0.70;;;16.10;68.20;;;;;;5042327;28;20123;-36
2022/09/03 02:31:54;;;;;;;2.00;0.80;;;16.10;68.20;;;;;;5054664;28;20456;-45
2022/09/03 02:34:21;;;;;;;8.10;1.02;;;16.10;68.40;;;;;;5059969;28;20444;-44
2022/09/03 02:36:48;;;;;;;4.20;1.00;;;16.10;68.30;;;;;;5053684;28;20127;-39
2022/09/03 02:39:14;;;;;;;1.50;0.70;;;16.10;68.50;;;;;;5054105;28;20095;-47
2022/09/03 02:41:41;;;;;;;3.03;1.00;;;16.10;68.40;;;;;;5053575;28;20384;-44
2022/09/03 02:44:11;;;;;;;2.42;0.80;;;16.10;68.50;;;;;;5036848;28;20076;-46
2022/09/03 02:46:39;;;;;;;1.85;0.80;;;16.20;68.40;;;;;;5036010;28;20096;-44
2022/09/03 02:49:07;;;;;;;3.33;0.77;;;16.20;68.50;;;;;;5051518;28;20047;-41
2022/09/03 02:51:35;;;;;;;1.58;0.80;;;16.20;68.40;;;;;;5035798;28;20060;-44
2022/09/03 02:54:02;;;;;;;3.55;0.90;;;16.20;68.50;;;;;;5054563;28;20538;-45
2022/09/03 02:56:28;;;;;;;1.92;1.00;;;16.20;68.50;;;;;;5053235;28;20507;-44
2022/09/03 02:58:55;;;;;;;2.03;0.70;;;16.20;68.50;;;;;;5034544;28;20400;-44
2022/09/03 03:01:22;;;;;;;2.53;0.60;;;16.20;68.40;;;;;;5035997;28;20482;-45
2022/09/03 03:03:49;;;;;;;5.07;1.00;;;16.20;68.40;;;;;;5053076;28;20515;-43
2022/09/03 03:06:19;;;;;;;4.43;0.80;;;16.30;68.40;;;;;;5036466;28;20040;-43
2022/09/03 03:08:46;;;;;;;3.20;0.90;;;16.30;68.50;;;;;;5029565;28;20132;-44
2022/09/03 03:11:14;;;;;;;2.47;0.75;;;16.30;68.50;;;;;;5050751;28;20037;-43
2022/09/03 03:13:41;;;;;;;1.67;0.65;;;16.30;68.40;;;;;;5039276;28;20041;-46
2022/09/03 03:16:08;;;;;;;1.10;0.82;;;16.30;68.50;;;;;;5052107;28;20083;-43
2022/09/03 03:18:35;;;;;;;8.63;1.00;;;16.30;68.40;;;;;;5032755;28;20132;-47
2022/09/03 03:21:04;;;;;;;3.53;0.80;;;16.30;68.40;;;;;;5039829;28;20088;-43
2022/09/03 03:23:33;;;;;;;3.85;0.85;;;16.30;68.40;;;;;;5046203;28;20124;-46
2022/09/03 03:26:01;;;;;;;6.20;0.85;;;16.30;68.40;;;;;;5053428;28;20075;-47
2022/09/03 03:28:28;;;;;;;1.13;0.70;;;16.30;68.40;;;;;;5051774;28;20127;-39
2022/09/03 03:30:55;;;;;;;3.08;0.63;;;16.30;68.40;;;;;;5052744;28;20124;-45
2022/09/03 03:33:21;;;;;;;1.98;1.02;;;16.30;68.40;;;;;;5034575;28;20277;-46
2022/09/03 03:35:48;;;;;;;3.70;0.90;;;16.20;68.40;;;;;;5053106;28;20072;-46
2022/09/03 03:38:16;;;;;;;3.10;0.88;;;16.30;69.10;;;;;;5052858;28;20421;-45
2022/09/03 03:40:44;;;;;;;2.72;0.88;;;16.30;68.60;;;;;;5052148;28;20433;-44
2022/09/03 03:43:10;;;;;;;4.50;0.98;;;16.30;68.50;;;;;;5053644;28;20080;-49
2022/09/03 03:45:37;;;;;;;2.58;0.50;;;16.30;68.50;;;;;;5053915;28;20044;-44
2022/09/03 03:48:04;;;;;;;3.83;1.50;;;16.20;68.70;;;;;;5051954;28;20124;-46
2022/09/03 03:50:31;;;;;;;2.22;0.73;;;16.30;68.60;;;;;;5051739;28;20080;-44
2022/09/03 03:52:59;;;;;;;2.28;0.90;;;16.30;68.70;;;;;;5052701;28;20085;-44
2022/09/03 03:55:26;;;;;;;1.50;0.70;;;16.20;68.70;;;;;;5053390;28;20047;-46
2022/09/03 03:57:54;;;;;;;5.72;0.90;;;16.30;68.80;;;;;;5047264;28;20119;-44
2022/09/03 04:00:21;;;;;;;3.78;0.88;;;16.20;69.50;;;;;;5050453;28;20048;-45
2022/09/03 04:02:48;;;;;;;1.52;0.70;;;16.20;68.90;;;;;;5052822;28;20080;-40
2022/09/03 04:05:14;;;;;;;3.95;0.77;;;16.20;68.80;;;;;;5042931;28;20057;-45
2022/09/03 04:07:42;;;;;;;2.42;1.00;;;16.20;68.80;;;;;;5036181;28;20075;-45
2022/09/03 04:10:09;;;;;;;3.25;0.90;;;16.20;69.10;;;;;;5028446;28;20051;-43
2022/09/03 04:12:36;;;;;;;3.38;0.73;;;16.20;69.10;;;;;;5053501;28;20115;-44
2022/09/03 04:15:05;;;;;;;4.68;0.95;;;16.10;69.00;;;;;;5052158;28;20120;-46
2022/09/03 04:17:32;;;;;;;2.67;0.80;;;16.10;69.00;;;;;;5051812;28;20080;-45
2022/09/03 04:19:59;;;;;;;2.92;0.75;;;16.10;69.00;;;;;;5054772;28;20083;-44
2022/09/03 04:22:25;;;;;;;5.07;0.95;;;16.10;69.10;;;;;;5052554;28;20132;-45
2022/09/03 04:24:52;;;;;;;6.97;1.13;;;16.00;69.20;;;;;;5052283;28;20037;-43
2022/09/03 04:27:19;;;;;;;26.70;1.17;;;16.00;69.30;;;;;;5034300;28;20048;-41
2022/09/03 04:29:46;;;;;;;5.55;1.10;;;15.90;69.50;;;;;;5051198;28;20123;-45
2022/09/03 04:34:58;;;;;;;5.30;1.00;;;15.90;69.70;;;;;;5052310;28;20053;-46
2022/09/03 04:37:24;;;;;;;1.58;0.90;;;15.90;69.70;;;;;;5051669;28;20048;-43
2022/09/03 04:39:52;;;;;;;4.78;0.80;;;15.80;69.70;;;;;;5026390;28;20041;-46
2022/09/03 04:42:19;;;;;;;2.35;0.90;;;15.80;69.90;;;;;;5033487;28;20444;-48
2022/09/03 04:44:46;;;;;;;4.47;0.90;;;15.80;70.10;;;;;;5031445;28;20040;-47
2022/09/03 04:47:15;;;;;;;2.53;0.95;;;15.70;70.10;;;;;;5031317;28;20051;-41
2022/09/03 04:49:41;;;;;;;3.58;1.00;;;15.70;70.20;;;;;;5033846;28;20457;-45
2022/09/03 04:52:08;;;;;;;2.13;1.00;;;15.70;70.40;;;;;;5050662;28;20124;-42
2022/09/03 04:54:35;;;;;;;1.63;1.50;;;15.70;70.50;;;;;;5053684;28;20040;-46
2022/09/03 04:57:02;;;;;;;4.05;1.20;;;15.60;70.60;;;;;;5050535;28;20119;-45
2022/09/03 04:59:29;;;;;;;2.63;0.90;;;15.60;70.80;;;;;;5050274;28;20132;-44
2022/09/03 05:01:55;;;;;;;6.60;1.23;;;15.60;70.90;;;;;;5027308;28;20124;-46
2022/09/03 05:04:23;;;;;;;3.03;1.10;;;15.60;70.90;;;;;;5024460;28;20144;-45
2022/09/03 05:06:50;;;;;;;1.88;1.00;;;15.50;70.90;;;;;;5031579;28;20112;-46
2022/09/03 05:09:17;;;;;;;6.72;1.00;;;15.50;71.10;;;;;;5031123;28;20132;-43
2022/09/03 05:11:44;;;;;;;2.83;1.00;;;15.50;71.10;;;;;;5024592;28;20046;-48
2022/09/03 05:14:11;;;;;;;1.98;0.90;;;15.50;71.20;;;;;;5013278;28;20053;-46
2022/09/03 05:16:38;;;;;;;2.15;0.90;;;15.50;71.30;;;;;;5031001;28;20041;-47
2022/09/03 05:19:06;;;;;;;3.40;1.10;;;15.50;71.60;;;;;;5032093;28;20041;-42
2022/09/03 05:21:35;;;;;;;3.42;1.10;;;15.40;71.70;;;;;;5013502;28;20049;-48
2022/09/03 05:24:03;;;;;;;4.10;1.00;;;15.40;71.80;;;;;;5014103;28;20044;-43
2022/09/03 05:26:30;;;;;;;5.80;1.27;;;15.40;71.70;;;;;;5030741;28;20084;-45
2022/09/03 05:28:58;;;;;;;3.65;1.10;;;15.40;71.90;;;;;;5030614;28;20045;-43
2022/09/03 05:31:26;;;;;;;5.25;1.50;;;15.40;71.90;;;;;;5030826;28;20132;-45
2022/09/03 05:33:56;;;;;;;3.38;1.38;;;15.40;72.00;;;;;;5014137;28;20042;-41
2022/09/03 05:36:24;;;;;;;4.05;1.08;;;15.40;72.20;;;;;;5030109;28;20134;-45
2022/09/03 05:38:53;;;;;;;2.35;1.00;;;15.40;72.40;;;;;;5031695;28;20057;-40
2022/09/03 05:41:19;;;;;;;2.95;1.20;;;15.40;72.20;;;;;;5023239;28;20049;-46
2022/09/03 05:43:51;;;;;;;3.70;1.15;;;15.40;72.30;;;;;;5012131;28;20057;-47
2022/09/03 05:46:18;;;;;;;3.15;1.20;;;15.40;72.50;;;;;;5039756;28;20041;-43
2022/09/03 05:48:45;;;;;;;2.67;1.20;;;15.40;72.50;;;;;;5034316;28;20053;-45
2022/09/03 05:51:13;;;;;;;4.00;1.13;;;15.40;72.80;;;;;;5008421;28;20556;-45
2022/09/03 05:53:40;;;;;;;2.38;1.30;;;15.40;72.90;;;;;;5010083;28;20470;-47
2022/09/03 05:56:10;;;;;;;4.28;1.20;;;15.40;72.90;;;;;;5015025;28;20045;-47
2022/09/03 05:58:38;;;;;;;3.40;1.10;;;15.50;73.00;;;;;;5034566;28;20045;-44
2022/09/03 06:01:10;;;;;;;9.48;1.52;;;15.50;72.90;;;;;;5014680;28;20045;-46
2022/09/03 06:03:37;;;;;;;4.50;1.05;;;15.50;73.30;;;;;;5054774;28;20087;-49
2022/09/03 06:06:04;;;;;;;4.50;1.40;;;15.50;73.30;;;;;;5026405;28;20048;-46
2022/09/03 06:08:31;;;;;;;5.80;1.58;;;15.50;73.30;;;;;;5052981;28;20488;-47
2022/09/03 06:10:58;;;;;;;4.60;1.33;;;15.60;73.50;;;;;;5035729;28;20148;-43
2022/09/03 06:13:26;;;;;;;1.98;1.10;;;15.60;73.50;;;;;;5055377;28;20045;-46
2022/09/03 06:15:56;;;;;;;4.05;1.20;;;15.70;73.70;;;;;;5047335;28;20045;-45
2022/09/03 06:18:23;;;;;;;4.53;1.20;;;15.70;73.50;;;;;;5051010;28;20053;-45
2022/09/03 06:20:54;;;;;;;3.20;1.35;;;15.80;73.50;;;;;;5032149;28;20131;-40
2022/09/03 06:23:21;;;;;;;4.97;1.10;;;15.80;73.60;;;;;;5052200;28;20041;-45
2022/09/03 06:25:47;;;;;;;3.10;1.17;;;15.80;73.50;;;;;;5046940;28;20075;-44
2022/09/03 06:28:14;;;;;;;3.55;1.35;;;15.90;73.50;;;;;;5049614;28;20080;-42
2022/09/03 06:30:42;;;;;;;7.63;1.30;;;16.00;73.30;;;;;;5050853;28;20120;-46
2022/09/03 06:33:09;;;;;;;2.13;1.20;;;16.10;73.80;;;;;;5054071;28;20132;-49
2022/09/03 06:35:36;;;;;;;4.28;1.35;;;16.10;73.10;;;;;;5040243;28;20096;-47
2022/09/03 06:38:03;;;;;;;3.88;1.63;;;16.20;73.20;;;;;;5052487;28;20439;-44
2022/09/03 06:40:30;;;;;;;3.60;1.25;;;16.20;73.20;;;;;;5039442;28;20137;-46
2022/09/03 06:43:00;;;;;;;2.78;1.63;;;16.30;73.20;;;;;;5054494;28;20048;-42
2022/09/03 06:45:27;;;;;;;6.45;1.40;;;16.40;73.10;;;;;;5032145;28;20103;-44
2022/09/03 06:47:56;;;;;;;6.82;1.35;;;16.50;72.80;;;;;;5034290;28;20060;-46
2022/09/03 06:50:22;;;;;;;3.85;1.42;;;16.60;72.80;;;;;;5035590;28;20057;-46
2022/09/03 06:52:53;;;;;;;5.85;1.63;;;16.60;72.60;;;;;;5052149;28;20053;-44
2022/09/03 06:55:20;;;;;;;7.80;2.17;;;16.70;72.60;;;;;;5052670;28;20416;-45
2022/09/03 06:57:47;;;;;;;8.02;1.70;;;16.70;72.60;;;;;;5051305;28;20041;-39
2022/09/03 07:00:14;;;;;;;8.93;2.08;;;16.80;72.50;;;;;;5030916;28;20144;-35
2022/09/03 07:02:41;;;;;;;6.28;1.50;;;16.90;72.70;;;;;;5026715;28;20124;-44
2022/09/03 07:05:10;;;;;;;7.28;1.48;;;17.00;72.70;;;;;;5033738;28;20531;-46
2022/09/03 07:07:37;;;;;;;4.05;1.83;;;17.10;72.40;;;;;;5013781;28;20509;-49
2022/09/03 07:10:05;;;;;;;4.40;1.60;;;17.20;72.40;;;;;;5031608;28;20041;-44
2022/09/03 07:12:36;;;;;;;4.03;1.52;;;17.30;71.90;;;;;;5033428;28;20080;-46
2022/09/03 07:15:03;;;;;;;5.05;1.40;;;17.40;72.00;;;;;;5015979;28;20465;-42
2022/09/03 07:17:30;;;;;;;4.55;1.60;;;17.60;71.80;;;;;;5028839;28;20049;-44
2022/09/03 07:19:56;;;;;;;2.65;1.20;;;17.60;71.40;;;;;;5031054;28;20136;-44
2022/09/03 07:22:24;;;;;;;4.85;1.65;;;17.80;71.40;;;;;;5031275;28;20050;-45
2022/09/03 07:24:51;;;;;;;10.07;1.55;;;17.90;71.10;;;;;;5032973;28;20148;-45
2022/09/03 07:27:18;;;;;;;3.70;1.33;;;18.00;70.80;;;;;;5028768;28;20129;-47
2022/09/03 07:29:45;;;;;;;5.35;1.30;;;18.10;70.20;;;;;;5021391;28;20132;-44
2022/09/03 07:32:11;;;;;;;6.68;1.20;;;18.20;69.90;;;;;;5030837;28;20124;-47
2022/09/03 07:34:38;;;;;;;3.70;1.40;;;18.30;69.90;;;;;;5031920;28;20475;-48
2022/09/03 07:37:06;;;;;;;3.55;1.30;;;18.40;69.70;;;;;;5038569;28;20041;-45
2022/09/03 07:39:34;;;;;;;3.63;1.13;;;18.50;69.30;;;;;;5030754;28;20048;-42
2022/09/03 07:42:01;;;;;;;2.17;1.10;;;18.60;69.10;;;;;;5013240;28;20140;-48
2022/09/03 07:44:28;;;;;;;12.57;1.48;;;18.70;69.20;;;;;;5036991;28;20047;-46
2022/09/03 07:46:55;;;;;;;1.77;1.10;;;18.80;69.30;;;;;;5030631;28;20045;-46
2022/09/03 07:49:22;;;;;;;4.53;1.13;;;19.00;69.50;;;;;;5010711;28;20405;-46
2022/09/03 07:51:51;;;;;;;5.30;1.30;;;19.10;68.90;;;;;;5029044;28;20080;-46
2022/09/03 07:54:19;;;;;;;6.97;1.58;;;19.20;68.30;;;;;;5013706;28;20089;-45
2022/09/03 07:56:47;;;;;;;3.58;1.20;;;19.30;68.10;;;;;;5033221;28;20033;-44
2022/09/03 07:59:14;;;;;;;4.15;1.33;;;19.50;68.20;;;;;;5032075;28;20041;-44
2022/09/03 08:01:41;;;;;;;5.50;1.20;;;19.60;67.60;;;;;;5016472;28;20496;-46
2022/09/03 08:04:07;;;;;;;3.97;1.48;;;19.80;67.40;;;;;;5049168;28;20110;-46
2022/09/03 08:06:34;;;;;;;3.30;1.08;;;19.90;66.30;;;;;;5052450;28;20044;-40
2022/09/03 08:09:02;;;;;;;2.85;1.25;;;19.90;66.20;;;;;;5048454;28;20053;-43
2022/09/03 08:11:30;;;;;;;4.07;1.23;;;20.10;65.80;;;;;;5042316;28;20041;-47
2022/09/03 08:14:00;;;;;;;4.85;1.40;;;20.20;65.70;;;;;;5050453;28;20045;-46
2022/09/03 08:16:27;;;;;;;4.00;1.08;;;20.30;65.20;;;;;;5051900;28;20099;-46
2022/09/03 08:18:55;;;;;;;3.90;1.20;;;20.40;64.80;;;;;;5043399;28;20069;-44
2022/09/03 08:21:22;;;;;;;2.60;1.08;;;20.50;64.70;;;;;;5047387;28;20063;-42
2022/09/03 08:23:50;;;;;;;4.55;1.40;;;20.60;64.40;;;;;;5039249;28;20077;-39
2022/09/03 08:26:17;;;;;;;3.72;1.10;;;20.70;64.20;;;;;;5025443;28;20084;-49
2022/09/03 08:28:44;;;;;;;3.67;1.20;;;20.80;64.20;;;;;;5051216;28;20120;-47
2022/09/03 08:31:13;;;;;;;3.60;1.25;;;21.00;63.90;;;;;;5048366;28;20124;-44
2022/09/03 08:33:41;;;;;;;1.60;1.10;;;21.10;63.50;;;;;;5051181;28;20443;-42
2022/09/03 08:36:09;;;;;;;3.38;1.35;;;21.20;63.30;;;;;;5021326;28;20362;-44
2022/09/03 08:38:37;;;;;;;4.68;1.35;;;21.30;63.10;;;;;;5042871;28;20053;-45
2022/09/03 08:41:08;;;;;;;2.97;0.93;;;21.40;63.00;;;;;;5048426;28;20049;-44
2022/09/03 08:43:39;;;;;;;3.33;1.00;;;21.50;63.10;;;;;;5044290;28;20043;-44
2022/09/03 08:46:07;;;;;;;4.63;1.40;;;21.70;62.40;;;;;;5048870;28;20154;-47
2022/09/03 08:48:35;;;;;;;3.80;1.10;;;21.80;62.10;;;;;;5052493;28;20041;-45
2022/09/03 08:51:03;;;;;;;4.85;1.40;;;21.90;61.60;;;;;;5032856;28;20114;-48
2022/09/03 08:53:33;;;;;;;4.13;1.20;;;22.10;61.40;;;;;;5052350;28;20057;-45
2022/09/03 08:56:03;;;;;;;2.15;1.00;;;22.10;61.60;;;;;;5051283;28;20461;-48
2022/09/03 08:58:30;;;;;;;8.13;1.10;;;22.30;61.10;;;;;;5047692;28;20057;-44
2022/09/03 09:01:01;;;;;;;2.38;1.20;;;22.40;61.10;;;;;;5041924;28;20128;-45
2022/09/03 09:03:36;;;;;;;4.82;1.23;;;22.50;60.70;;;;;;5048816;28;20065;-44
2022/09/03 09:06:08;;;;;;;6.70;1.30;;;22.60;60.80;;;;;;5050536;28;20044;-48
2022/09/03 09:08:38;;;;;;;3.53;1.45;;;22.70;60.60;;;;;;5049728;28;20044;-45
2022/09/03 09:11:14;;;;;;;3.85;1.13;;;22.80;60.10;;;;;;5042235;28;20068;-47
2022/09/03 09:13:42;;;;;;;3.38;1.10;;;22.90;59.70;;;;;;5051358;28;20076;-46
2022/09/03 09:16:12;;;;;;;5.25;1.30;;;22.90;59.50;;;;;;5032227;28;20037;-46
2022/09/03 09:18:48;;;;;;;5.10;1.25;;;23.00;59.40;;;;;;5052507;28;20051;-45
2022/09/03 09:21:16;;;;;;;5.40;1.60;;;23.10;58.10;;;;;;5045845;28;20098;-48
2022/09/03 09:23:44;;;;;;;1.73;1.00;;;23.10;58.40;;;;;;5037768;28;20080;-42
2022/09/03 09:26:13;;;;;;;2.35;1.20;;;23.20;58.80;;;;;;5050156;28;20434;-46
2022/09/03 09:28:40;;;;;;;7.57;1.50;;;23.30;58.50;;;;;;5044428;28;20277;-46
2022/09/03 09:31:07;;;;;;;2.53;1.10;;;23.40;58.10;;;;;;5048522;28;20041;-45
2022/09/03 09:33:34;;;;;;;3.75;1.00;;;23.60;58.00;;;;;;5051000;28;20077;-48
2022/09/03 09:36:03;;;;;;;4.00;1.20;;;23.70;58.30;;;;;;5049024;28;20564;-45
2022/09/03 09:38:30;;;;;;;4.10;1.00;;;23.90;58.30;;;;;;5053432;28;20429;-47
2022/09/03 09:41:07;;;;;;;4.97;1.20;;;24.10;57.90;;;;;;5055932;28;20458;-48
2022/09/03 09:43:34;;;;;;;4.05;1.13;;;24.20;57.40;;;;;;5055405;28;20044;-50
2022/09/03 09:46:07;;;;;;;5.15;0.90;;;24.20;56.90;;;;;;5054850;28;20076;-43
2022/09/03 09:48:38;;;;;;;4.93;1.52;;;24.30;56.70;;;;;;5036916;28;20126;-51
2022/09/03 09:51:07;;;;;;;6.28;1.23;;;24.40;56.70;;;;;;5055958;28;20041;-48
2022/09/03 09:53:35;;;;;;;3.72;1.50;;;24.60;57.10;;;;;;5037071;28;20425;-48
2022/09/03 09:56:02;;;;;;;6.75;1.13;;;24.60;56.30;;;;;;5043775;28;20049;-48
2022/09/03 09:58:30;;;;;;;6.68;1.10;;;24.70;56.00;;;;;;5043490;28;20392;-45
2022/09/03 10:01:02;;;;;;;5.85;1.45;;;24.90;56.10;;;;;;5055552;28;20041;-50
2022/09/03 10:03:33;;;;;;;5.03;1.13;;;24.90;55.30;;;;;;5009436;28;20458;-46
2022/09/03 10:08:47;;;;;;;2.42;1.05;;;25.30;55.60;;;;;;4988026;28;20484;-47
2022/09/03 10:11:15;;;;;;;6.38;1.10;;;25.50;54.90;;;;;;5028741;28;20129;-47
2022/09/03 10:13:42;;;;;;;5.07;0.93;;;25.70;54.40;;;;;;5033147;28;20065;-45
2022/09/03 10:16:13;;;;;;;4.13;1.10;;;25.80;54.30;;;;;;5026942;28;20500;-47
2022/09/03 10:18:42;;;;;;;4.38;1.17;;;25.80;53.70;;;;;;5015786;28;20123;-46
2022/09/03 10:21:11;;;;;;;8.60;0.95;;;25.90;54.10;;;;;;5007817;28;20041;-45
2022/09/03 10:23:46;;;;;;;1.10;0.90;;;26.00;54.00;;;;;;5032064;28;20492;-47
2022/09/03 10:26:13;;;;;;;2.13;0.95;;;26.10;53.50;;;;;;5013984;28;20160;-49
2022/09/03 10:28:41;;;;;;;10.52;1.23;;;26.20;53.40;;;;;;5010073;28;20081;-46
2022/09/03 10:31:21;;;;;;;5.70;0.90;;;26.20;52.40;;;;;;5015929;28;20053;-48
2022/09/03 10:33:49;;;;;;;2.67;0.93;;;26.20;53.00;;;;;;5029610;28;20559;-45
2022/09/03 10:36:19;;;;;;;6.63;1.10;;;26.30;52.60;;;;;;5017721;28;20103;-47
2022/09/03 10:38:46;;;;;;;5.78;1.20;;;26.40;52.10;;;;;;5034981;28;20489;-47
2022/09/03 10:41:20;;;;;;;3.90;0.90;;;26.50;52.10;;;;;;5008253;28;20128;-49
2022/09/03 10:44:09;;;;;;;1.60;1.00;;;26.50;51.40;;;;;;5027873;28;20144;-43
2022/09/03 10:46:38;;;;;;;2.33;1.00;;;26.60;51.50;;;;;;5012325;28;20708;-47
2022/09/03 10:49:13;;;;;;;3.95;1.20;;;26.60;51.40;;;;;;4997582;28;20077;-45
2022/09/03 10:51:42;;;;;;;2.72;1.02;;;26.60;50.70;;;;;;5032528;28;20124;-46
2022/09/03 10:54:23;;;;;;;5.07;1.17;;;26.60;50.80;;;;;;5030553;28;20136;-46
2022/09/03 10:56:54;;;;;;;1.98;0.80;;;26.60;50.70;;;;;;5028686;28;20393;-47
2022/09/03 10:59:29;;;;;;;2.10;0.90;;;26.70;50.40;;;;;;5028749;28;20053;-47
2022/09/03 11:02:00;;;;;;;3.47;0.90;;;26.80;49.50;;;;;;5039280;28;20056;-42
2022/09/03 11:04:29;;;;;;;4.68;0.82;;;26.80;49.60;;;;;;5033061;28;20496;-45
2022/09/03 11:06:59;;;;;;;5.75;0.90;;;26.90;49.50;;;;;;5029772;28;20144;-47
2022/09/03 11:09:28;;;;;;;5.07;0.93;;;26.90;49.00;;;;;;5051251;28;20092;-49
2022/09/03 11:11:57;;;;;;;4.65;1.20;;;26.90;49.10;;;;;;5051800;28;20080;-47
2022/09/03 11:14:30;;;;;;;1.38;0.90;;;26.80;48.80;;;;;;5050608;28;20076;-44
2022/09/03 11:17:00;;;;;;;3.00;1.15;;;26.90;49.60;;;;;;5025518;28;20614;-50
2022/09/03 11:19:32;;;;;;;7.05;1.10;;;27.10;49.40;;;;;;5049474;28;20136;-47
2022/09/03 11:22:00;;;;;;;3.17;1.15;;;27.30;48.70;;;;;;5047587;28;20047;-44
2022/09/03 11:24:27;;;;;;;1.83;0.98;;;27.30;48.50;;;;;;5049959;28;20428;-45
2022/09/03 11:26:57;;;;;;;8.65;1.48;;;27.40;48.30;;;;;;5046393;28;20045;-47
2022/09/03 11:29:26;;;;;;;10.57;1.27;;;27.40;48.30;;;;;;5045105;28;20057;-42
2022/09/03 11:31:57;;;;;;;3.15;1.15;;;27.50;48.30;;;;;;5046953;28;20073;-46
2022/09/03 11:34:29;;;;;;;2.58;1.10;;;27.70;47.70;;;;;;5049418;28;20048;-46
2022/09/03 11:37:07;;;;;;;4.60;1.10;;;27.60;47.30;;;;;;5031253;28;20139;-49
2022/09/03 11:39:35;;;;;;;8.10;1.15;;;27.50;46.90;;;;;;5031717;28;20072;-47
2022/09/03 11:42:05;;;;;;;9.73;1.05;;;27.50;47.50;;;;;;5052319;28;20057;-47
2022/09/03 11:44:36;;;;;;;1.58;0.80;;;27.50;47.60;;;;;;5051050;28;20041;-48
2022/09/03 11:47:15;;;;;;;3.35;1.00;;;27.50;47.40;;;;;;5035849;28;20044;-44
2022/09/03 11:49:45;;;;;;;3.25;0.98;;;27.60;46.50;;;;;;5034495;28;20044;-47
2022/09/03 11:52:13;;;;;;;2.22;0.90;;;27.60;47.00;;;;;;5051958;28;20049;-50
2022/09/03 11:54:43;;;;;;;7.50;1.02;;;27.70;46.40;;;;;;5035569;28;20057;-44
2022/09/03 11:57:13;;;;;;;6.53;1.10;;;27.80;46.70;;;;;;5051905;28;20049;-44
2022/09/03 11:59:40;;;;;;;6.45;1.00;;;27.80;46.60;;;;;;5033826;28;20037;-45
2022/09/03 12:02:15;;;;;;;3.75;1.20;;;27.80;46.60;;;;;;5035760;28;20045;-45
2022/09/03 12:05:04;;;;;;;3.90;0.93;;;27.80;45.90;;;;;;5046745;28;20050;-47
2022/09/03 12:07:45;;;;;;;3.58;1.00;;;28.00;46.30;;;;;;5022372;28;20033;-39
2022/09/03 12:10:20;;;;;;;4.30;1.00;;;28.10;46.70;;;;;;5040058;28;20048;-45
2022/09/03 12:12:53;;;;;;;2.22;1.00;;;28.30;45.90;;;;;;5024212;28;20076;-44
2022/09/03 12:15:45;;;;;;;4.57;0.90;;;28.40;46.00;;;;;;5025465;28;20111;-45
2022/09/03 12:18:21;;;;;;;3.88;1.00;;;28.50;45.80;;;;;;5045279;28;20048;-45
2022/09/03 12:20:49;;;;;;;4.15;0.90;;;28.70;45.40;;;;;;5046924;28;20045;-46
2022/09/03 12:23:28;;;;;;;2.83;0.90;;;28.80;45.30;;;;;;5028955;28;20103;-48
2022/09/03 12:25:55;;;;;;;4.13;0.90;;;28.80;44.40;;;;;;5048427;28;20127;-48
2022/09/03 12:28:23;;;;;;;3.05;1.00;;;28.70;44.40;;;;;;5044119;28;20449;-47
2022/09/03 12:30:52;;;;;;;3.45;1.05;;;28.70;44.60;;;;;;5047247;28;20476;-46
2022/09/03 12:33:19;;;;;;;3.60;1.13;;;28.80;44.70;;;;;;5044572;28;20431;-47
2022/09/03 12:35:55;;;;;;;4.15;1.30;;;28.80;44.80;;;;;;5029638;28;20387;-47
2022/09/03 12:38:23;;;;;;;5.90;0.80;;;28.90;44.50;;;;;;5028247;28;20425;-47
2022/09/03 12:40:53;;;;;;;5.65;0.95;;;28.90;44.90;;;;;;5044159;28;20524;-43
2022/09/03 12:43:21;;;;;;;5.40;0.80;;;29.10;44.60;;;;;;5044789;28;20423;-47
2022/09/03 12:45:49;;;;;;;8.57;1.05;;;29.00;44.40;;;;;;5028864;28;20484;-48
2022/09/03 12:48:17;;;;;;;7.40;1.27;;;28.90;44.40;;;;;;5042307;28;20057;-45
2022/09/03 12:50:44;;;;;;;4.03;0.90;;;29.00;44.40;;;;;;5041856;28;20044;-45
2022/09/03 12:53:12;;;;;;;3.55;0.95;;;29.10;44.40;;;;;;5044065;28;20140;-49
2022/09/03 12:55:41;;;;;;;6.40;1.05;;;29.20;43.80;;;;;;5041700;28;20088;-46
2022/09/03 12:58:10;;;;;;;6.30;1.00;;;29.10;43.40;;;;;;5043472;28;20480;-43
2022/09/03 13:00:39;;;;;;;5.20;1.17;;;29.10;43.90;;;;;;5045201;28;20056;-43
2022/09/03 13:03:07;;;;;;;2.75;1.00;;;29.00;43.50;;;;;;5044200;28;20076;-46
2022/09/03 13:05:35;;;;;;;11.30;1.20;;;29.00;43.70;;;;;;5041619;28;20114;-45
2022/09/03 13:08:04;;;;;;;6.07;1.13;;;29.00;43.50;;;;;;5043715;28;20076;-44